createdAt,value
2023-01-25T00:01:07.204Z,102333.00
2023-01-25T00:03:34.148Z,102336.00
2023-01-25T00:06:01.868Z,102315.00
2023-01-25T00:08:29.227Z,102318.00
2023-01-25T00:10:58.356Z,102307.00
2023-01-25T00:13:26.091Z,102309.00
2023-01-25T00:15:53.140Z,102313.00
2023-01-25T00:18:21.418Z,102307.00
2023-01-25T00:20:48.241Z,102317.00
2023-01-25T00:23:15.087Z,102309.00
2023-01-25T00:25:41.950Z,102317.00
2023-01-25T00:28:08.953Z,102311.00
2023-01-25T00:30:35.836Z,102297.00
2023-01-25T00:33:37.975Z,102292.00
2023-01-25T00:36:25.080Z,102287.00
2023-01-25T00:38:54.912Z,102295.00
2023-01-25T00:41:21.815Z,102284.00
2023-01-25T00:43:48.731Z,102286.00
2023-01-25T00:46:18.021Z,102266.00
2023-01-25T00:48:45.699Z,102297.00
2023-01-25T00:51:12.738Z,102275.00
2023-01-25T00:53:39.715Z,102248.00
2023-01-25T00:56:07.166Z,102268.00
2023-01-25T00:58:34.344Z,102267.00
2023-01-25T01:01:01.265Z,102259.00
2023-01-25T01:03:28.221Z,102249.00
2023-01-25T01:06:11.742Z,102224.00
2023-01-25T01:08:42.852Z,102236.00
2023-01-25T01:11:12.577Z,102244.00
2023-01-25T01:13:40.834Z,102244.00
2023-01-25T01:16:13.912Z,102235.00
2023-01-25T01:18:45.333Z,102228.00
2023-01-25T01:21:14.088Z,102200.00
2023-01-25T01:23:41.540Z,102225.00
2023-01-25T01:26:14.329Z,102224.00
2023-01-25T01:28:41.748Z,102228.00
2023-01-25T01:31:14.515Z,102221.00
2023-01-25T01:33:41.496Z,102201.00
2023-01-25T01:36:15.289Z,102194.00
2023-01-25T01:38:43.403Z,102210.00
2023-01-25T01:41:11.804Z,102203.00
2023-01-25T01:43:39.189Z,102204.00
2023-01-25T01:46:23.410Z,102216.00
2023-01-25T01:49:06.610Z,102211.00
2023-01-25T01:51:49.570Z,102212.00
2023-01-25T01:54:27.413Z,102204.00
2023-01-25T01:57:03.938Z,102199.00
2023-01-25T01:59:59.155Z,102191.00
2023-01-25T02:02:27.175Z,102188.00
2023-01-25T02:05:01.953Z,102171.00
2023-01-25T02:07:37.853Z,102154.00
2023-01-25T02:10:12.538Z,102175.00
2023-01-25T02:12:41.230Z,102176.00
2023-01-25T02:15:09.729Z,102168.00
2023-01-25T02:17:40.024Z,102136.00
2023-01-25T02:20:33.115Z,102161.00
2023-01-25T02:23:08.455Z,102163.00
2023-01-25T02:25:35.675Z,102174.00
2023-01-25T02:28:39.077Z,102169.00
2023-01-25T02:31:07.258Z,102151.00
2023-01-25T02:33:34.202Z,102153.00
2023-01-25T02:36:19.473Z,102119.00
2023-01-25T02:38:54.173Z,102147.00
2023-01-25T02:41:40.214Z,102150.00
2023-01-25T02:44:12.832Z,102146.00
2023-01-25T02:46:41.220Z,102151.00
2023-01-25T02:49:10.886Z,102157.00
2023-01-25T02:51:42.484Z,102151.00
2023-01-25T02:54:12.473Z,102136.00
2023-01-25T02:56:42.919Z,102122.00
2023-01-25T02:59:11.455Z,102114.00
2023-01-25T03:01:40.934Z,102125.00
2023-01-25T03:04:08.879Z,102102.00
2023-01-25T03:06:37.566Z,102125.00
2023-01-25T03:09:06.837Z,102127.00
2023-01-25T03:11:33.928Z,102122.00
2023-01-25T03:14:01.701Z,102116.00
2023-01-25T03:16:30.976Z,102117.00
2023-01-25T03:18:57.854Z,102097.00
2023-01-25T03:21:25.084Z,102099.00
2023-01-25T03:24:01.272Z,102099.00
2023-01-25T03:26:29.330Z,102091.00
2023-01-25T03:28:56.268Z,102095.00
2023-01-25T03:31:23.595Z,102091.00
2023-01-25T03:33:50.607Z,102109.00
2023-01-25T03:36:17.572Z,102094.00
2023-01-25T03:38:44.531Z,102101.00
2023-01-25T03:41:13.621Z,102089.00
2023-01-25T03:43:40.679Z,102094.00
2023-01-25T03:46:07.986Z,102080.00
2023-01-25T03:48:35.031Z,102074.00
2023-01-25T03:51:01.984Z,102068.00
2023-01-25T03:53:31.155Z,102061.00
2023-01-25T03:56:11.287Z,102065.00
2023-01-25T03:58:40.314Z,102070.00
2023-01-25T04:01:08.464Z,102072.00
2023-01-25T04:03:35.745Z,102066.00
2023-01-25T04:06:04.028Z,102064.00
2023-01-25T04:08:32.120Z,102062.00
2023-01-25T04:11:08.897Z,102068.00
2023-01-25T04:13:38.156Z,102065.00
2023-01-25T04:16:07.755Z,102051.00
2023-01-25T04:18:34.835Z,102059.00
2023-01-25T04:21:01.893Z,102061.00
2023-01-25T04:23:29.165Z,102058.00
2023-01-25T04:26:01.878Z,102056.00
2023-01-25T04:28:29.195Z,102039.00
2023-01-25T04:30:57.770Z,102046.00
2023-01-25T04:33:25.876Z,102026.00
2023-01-25T04:35:53.093Z,102049.00
2023-01-25T04:38:20.771Z,102042.00
2023-01-25T04:40:47.699Z,102038.00
2023-01-25T04:43:16.505Z,102033.00
2023-01-25T04:45:43.624Z,102026.00
2023-01-25T04:48:12.959Z,102031.00
2023-01-25T04:50:41.617Z,102028.00
2023-01-25T04:53:10.856Z,102021.00
2023-01-25T04:55:37.921Z,102002.00
2023-01-25T04:58:04.932Z,102014.00
2023-01-25T05:00:32.510Z,102009.00
2023-01-25T05:02:59.601Z,102017.00
2023-01-25T05:05:26.647Z,102021.00
2023-01-25T05:07:53.577Z,102016.00
2023-01-25T05:10:21.275Z,102004.00
2023-01-25T05:12:48.156Z,102030.00
2023-01-25T05:15:15.525Z,101988.00
2023-01-25T05:17:42.391Z,102011.00
2023-01-25T05:20:10.573Z,102021.00
2023-01-25T05:22:37.504Z,102018.00
2023-01-25T05:25:06.447Z,102017.00
2023-01-25T05:27:33.336Z,102021.00
2023-01-25T05:30:00.280Z,102018.00
2023-01-25T05:32:27.432Z,102001.00
2023-01-25T05:34:54.294Z,101996.00
2023-01-25T05:37:22.082Z,101995.00
2023-01-25T05:39:49.048Z,102006.00
2023-01-25T05:42:18.746Z,101997.00
2023-01-25T05:44:47.590Z,102000.00
2023-01-25T05:47:17.815Z,102002.00
2023-01-25T05:49:45.091Z,101989.00
2023-01-25T05:52:16.974Z,101977.00
2023-01-25T05:54:44.190Z,101964.00
2023-01-25T05:57:11.421Z,101982.00
2023-01-25T05:59:38.248Z,101969.00
2023-01-25T06:02:05.089Z,101983.00
2023-01-25T06:04:32.965Z,101986.00
2023-01-25T06:06:59.825Z,101976.00
2023-01-25T06:09:27.111Z,101985.00
2023-01-25T06:11:54.033Z,101993.00
2023-01-25T06:14:20.983Z,101980.00
2023-01-25T06:16:47.865Z,101977.00
2023-01-25T06:19:14.907Z,101980.00
2023-01-25T06:21:42.017Z,101982.00
2023-01-25T06:24:09.186Z,101979.00
2023-01-25T06:26:36.212Z,101952.00
2023-01-25T06:29:06.792Z,101978.00
2023-01-25T06:31:34.855Z,101971.00
2023-01-25T06:34:04.545Z,101964.00
2023-01-25T06:36:31.459Z,101950.00
2023-01-25T06:39:01.402Z,101965.00
2023-01-25T06:41:28.533Z,101958.00
2023-01-25T06:43:55.955Z,101959.00
2023-01-25T06:46:22.921Z,101932.00
2023-01-25T06:48:49.808Z,101960.00
2023-01-25T06:51:17.563Z,101957.00
2023-01-25T06:53:46.420Z,101910.00
2023-01-25T06:56:21.613Z,101940.00
2023-01-25T06:58:50.456Z,101904.00
2023-01-25T07:01:27.165Z,101950.00
2023-01-25T07:03:57.308Z,101924.00
2023-01-25T07:06:26.495Z,101944.00
2023-01-25T07:08:53.750Z,101944.00
2023-01-25T07:11:20.737Z,101938.00
2023-01-25T07:13:48.250Z,101943.00
2023-01-25T07:16:20.519Z,101942.00
2023-01-25T07:18:48.125Z,101952.00
2023-01-25T07:21:20.513Z,101959.00
2023-01-25T07:23:49.182Z,101945.00
2023-01-25T07:26:25.428Z,101952.00
2023-01-25T07:28:54.085Z,101946.00
2023-01-25T07:31:21.646Z,101944.00
2023-01-25T07:33:53.671Z,101936.00
2023-01-25T07:36:21.680Z,101946.00
2023-01-25T07:38:49.517Z,101945.00
2023-01-25T07:41:16.573Z,101945.00
2023-01-25T07:43:43.830Z,101949.00
2023-01-25T07:46:13.690Z,101941.00
2023-01-25T07:48:46.713Z,101967.00
2023-01-25T07:51:25.085Z,101946.00
2023-01-25T07:53:54.984Z,101937.00
2023-01-25T07:56:32.710Z,101938.00
2023-01-25T07:59:02.861Z,101942.00
2023-01-25T08:01:34.678Z,101937.00
2023-01-25T08:04:04.634Z,101937.00
2023-01-25T08:06:41.128Z,101892.00
2023-01-25T08:09:16.097Z,101911.00
2023-01-25T08:11:43.440Z,101918.00
2023-01-25T08:14:11.425Z,101921.00
2023-01-25T08:16:38.480Z,101921.00
2023-01-25T08:19:05.984Z,101925.00
2023-01-25T08:21:35.099Z,101925.00
2023-01-25T08:24:06.232Z,101934.00
2023-01-25T08:26:37.616Z,101919.00
2023-01-25T08:29:06.060Z,101923.00
2023-01-25T08:31:35.876Z,101919.00
2023-01-25T08:34:04.739Z,101902.00
2023-01-25T08:36:32.036Z,101904.00
2023-01-25T08:39:03.824Z,101897.00
2023-01-25T08:41:32.558Z,101891.00
2023-01-25T08:44:02.841Z,101907.00
2023-01-25T08:46:33.095Z,101909.00
2023-01-25T08:49:02.859Z,101909.00
2023-01-25T08:51:32.019Z,101901.00
2023-01-25T08:54:07.719Z,101898.00
2023-01-25T08:56:38.413Z,101897.00
2023-01-25T08:59:07.510Z,101891.00
2023-01-25T09:01:34.422Z,101895.00
2023-01-25T09:04:01.489Z,101889.00
2023-01-25T09:06:28.585Z,101892.00
2023-01-25T09:23:51.367Z,101893.00
2023-01-25T09:26:26.319Z,101812.00
2023-01-25T09:28:54.675Z,101884.00
2023-01-25T09:31:23.804Z,101859.00
2023-01-25T09:33:52.710Z,101870.00
2023-01-25T09:36:20.371Z,101873.00
2023-01-25T09:38:49.975Z,101858.00
2023-01-25T09:41:51.636Z,101860.00
2023-01-25T09:44:21.402Z,101851.00
2023-01-25T09:47:04.727Z,101852.00
2023-01-25T09:50:13.759Z,101865.00
2023-01-25T09:52:57.403Z,101848.00
2023-01-25T09:55:29.888Z,101843.00
2023-01-25T09:58:00.362Z,101844.00
2023-01-25T10:00:41.076Z,101841.00
2023-01-25T10:03:38.831Z,101828.00
2023-01-25T10:06:14.360Z,101823.00
2023-01-25T10:09:01.318Z,101831.00
2023-01-25T10:11:38.694Z,101823.00
2023-01-25T10:14:15.345Z,101811.00
2023-01-25T10:16:48.478Z,101803.00
2023-01-25T10:19:30.514Z,101806.00
2023-01-25T10:22:14.587Z,101798.00
2023-01-25T10:25:20.981Z,101806.00
2023-01-25T10:28:00.829Z,101786.00
2023-01-25T10:30:44.433Z,101777.00
2023-01-25T10:33:18.140Z,101780.00
2023-01-25T10:35:49.648Z,101777.00
2023-01-25T10:38:29.330Z,101777.00
2023-01-25T10:41:07.404Z,101778.00
2023-01-25T10:43:34.289Z,101779.00
2023-01-25T10:46:02.495Z,101773.00
2023-01-25T10:48:40.235Z,101769.00
2023-01-25T10:51:07.336Z,101760.00
2023-01-25T10:53:42.168Z,101758.00
2023-01-25T10:56:12.022Z,101754.00
2023-01-25T10:58:46.718Z,101750.00
2023-01-25T11:01:31.541Z,101719.00
2023-01-25T11:04:01.560Z,101746.00
2023-01-25T11:06:38.527Z,101736.00
2023-01-25T11:09:31.125Z,101731.00
2023-01-25T11:12:28.585Z,101726.00
2023-01-25T11:14:55.476Z,101725.00
2023-01-25T11:17:34.639Z,101719.00
2023-01-25T11:20:15.824Z,101717.00
2023-01-25T11:22:57.563Z,101709.00
2023-01-25T11:25:42.260Z,101707.00
2023-01-25T11:28:24.333Z,101701.00
2023-01-25T11:30:53.736Z,101694.00
2023-01-25T11:33:22.304Z,101688.00
2023-01-25T11:36:26.819Z,101688.00
2023-01-25T11:38:59.007Z,101681.00
2023-01-25T11:41:29.102Z,101683.00
2023-01-25T11:44:33.769Z,101652.00
2023-01-25T11:47:13.059Z,101673.00
2023-01-25T11:50:06.229Z,101671.00
2023-01-25T11:52:59.534Z,101668.00
2023-01-25T11:55:27.360Z,101663.00
2023-01-25T11:58:12.975Z,101666.00
2023-01-25T12:00:49.216Z,101643.00
2023-01-25T12:03:18.726Z,101637.00
2023-01-25T12:06:05.261Z,101642.00
2023-01-25T12:08:46.840Z,101627.00
2023-01-25T12:11:39.747Z,101620.00
2023-01-25T12:14:46.772Z,101622.00
2023-01-25T12:17:22.879Z,101617.00
2023-01-25T12:20:40.396Z,101600.00
2023-01-25T12:23:47.744Z,101591.00
2023-01-25T12:26:44.157Z,101584.00
2023-01-25T12:29:31.075Z,101584.00
2023-01-25T12:32:28.020Z,101583.00
2023-01-25T12:35:30.612Z,101572.00
2023-01-25T12:38:04.786Z,101576.00
2023-01-25T12:41:08.348Z,101564.00
2023-01-25T12:44:16.625Z,101562.00
2023-01-25T12:47:37.610Z,101557.00
2023-01-25T12:50:25.399Z,101557.00
2023-01-25T12:53:00.369Z,101540.00
2023-01-25T12:55:28.370Z,101542.00
2023-01-25T12:58:37.696Z,101533.00
2023-01-25T13:01:35.723Z,101528.00
2023-01-25T13:04:22.523Z,101531.00
2023-01-25T13:07:08.029Z,101513.00
2023-01-25T13:13:42.761Z,101521.00
2023-01-25T13:16:30.856Z,101522.00
2023-01-25T13:18:58.732Z,101516.00
2023-01-25T13:21:39.210Z,101521.00
2023-01-25T13:24:20.828Z,101514.00
2023-01-25T13:26:53.201Z,101514.00
2023-01-25T13:29:42.982Z,101513.00
2023-01-25T13:32:36.234Z,101510.00
2023-01-25T13:35:03.492Z,101513.00
2023-01-25T13:37:42.472Z,101506.00
2023-01-25T13:40:32.091Z,101504.00
2023-01-25T13:43:05.430Z,101494.00
2023-01-25T13:45:37.688Z,101480.00
2023-01-25T13:48:23.471Z,101479.00
2023-01-25T13:51:03.549Z,101489.00
2023-01-25T13:53:33.454Z,101486.00
2023-01-25T13:56:01.034Z,101482.00
2023-01-25T13:58:37.417Z,101465.00
2023-01-25T14:01:17.341Z,101442.00
2023-01-25T14:03:59.545Z,101468.00
2023-01-25T14:06:38.268Z,101474.00
2023-01-25T14:09:16.845Z,101475.00
2023-01-25T14:12:08.470Z,101434.00
2023-01-25T14:14:37.168Z,101335.00
2023-01-25T14:17:22.079Z,101443.00
2023-01-25T14:19:54.448Z,101447.00
2023-01-25T14:22:29.021Z,101441.00
2023-01-25T14:25:05.125Z,101431.00
2023-01-25T14:27:33.986Z,101431.00
2023-01-25T14:30:02.946Z,101425.00
2023-01-25T14:32:29.939Z,101406.00
2023-01-25T14:34:56.854Z,101429.00
2023-01-25T14:37:23.729Z,101422.00
2023-01-25T14:39:52.168Z,101421.00
2023-01-25T14:42:19.985Z,101419.00
2023-01-25T14:44:47.697Z,101390.00
2023-01-25T14:47:26.549Z,101415.00
2023-01-25T14:49:53.503Z,101415.00
2023-01-25T14:52:26.612Z,101413.00
2023-01-25T14:55:00.531Z,101396.00
2023-01-25T14:57:38.789Z,101401.00
2023-01-25T15:00:23.815Z,101398.00
2023-01-25T15:02:56.305Z,101395.00
2023-01-25T15:05:33.140Z,101393.00
2023-01-25T15:08:09.183Z,101401.00
2023-01-25T15:10:38.779Z,101397.00
2023-01-25T15:13:24.002Z,101401.00
2023-01-25T15:16:00.580Z,101394.00
2023-01-25T15:19:00.043Z,101381.00
2023-01-25T15:21:34.328Z,101380.00
2023-01-25T15:24:06.892Z,101388.00
2023-01-25T15:26:36.056Z,101347.00
2023-01-25T15:29:16.952Z,101384.00
2023-01-25T15:31:44.252Z,101371.00
2023-01-25T15:34:25.514Z,101382.00
2023-01-25T15:36:52.696Z,101377.00
2023-01-25T15:39:20.732Z,101366.00
2023-01-25T15:41:48.795Z,101357.00
2023-01-25T15:44:17.562Z,101346.00
2023-01-25T15:46:50.220Z,101357.00
2023-01-25T15:49:29.011Z,101359.00
2023-01-25T15:51:56.587Z,101359.00
2023-01-25T15:54:24.359Z,101368.00
2023-01-25T15:56:57.496Z,101365.00
2023-01-25T15:59:25.177Z,101349.00
2023-01-25T16:01:52.217Z,101351.00
2023-01-25T16:04:19.089Z,101349.00
2023-01-25T16:06:52.394Z,101339.00
2023-01-25T16:09:23.859Z,101362.00
2023-01-25T16:11:54.533Z,101346.00
2023-01-25T16:14:23.725Z,101336.00
2023-01-25T16:16:52.933Z,101349.00
2023-01-25T16:19:23.233Z,101351.00
2023-01-25T16:21:51.410Z,101356.00
2023-01-25T16:24:19.145Z,101348.00
2023-01-25T16:26:56.597Z,101325.00
2023-01-25T16:29:24.246Z,101340.00
2023-01-25T16:31:52.814Z,101359.00
2023-01-25T16:34:21.056Z,101336.00
2023-01-25T16:36:51.499Z,101335.00
2023-01-25T16:39:25.215Z,101334.00
2023-01-25T16:41:52.190Z,101330.00
2023-01-25T16:44:19.837Z,101317.00
2023-01-25T16:46:49.991Z,101324.00
2023-01-25T16:49:30.443Z,101314.00
2023-01-25T16:51:58.526Z,101316.00
2023-01-25T16:54:26.850Z,101312.00
2023-01-25T16:56:54.755Z,101319.00
2023-01-25T16:59:23.910Z,101313.00
2023-01-25T17:01:51.712Z,101295.00
2023-01-25T17:04:21.963Z,101308.00
2023-01-25T17:06:50.872Z,101306.00
2023-01-25T17:09:24.017Z,101304.00
2023-01-25T17:11:53.826Z,101293.00
2023-01-25T17:14:22.602Z,101270.00
2023-01-25T17:16:51.543Z,101293.00
2023-01-25T17:19:19.373Z,101289.00
2023-01-25T17:21:46.741Z,101288.00
2023-01-25T17:24:19.439Z,101291.00
2023-01-25T17:26:46.623Z,101286.00
2023-01-25T17:29:13.849Z,101292.00
2023-01-25T17:31:42.145Z,101290.00
2023-01-25T17:34:13.619Z,101288.00
2023-01-25T17:36:40.741Z,101263.00
2023-01-25T17:39:08.221Z,101293.00
2023-01-25T17:41:35.359Z,101300.00
2023-01-25T17:44:02.930Z,101287.00
2023-01-25T17:46:35.013Z,101279.00
2023-01-25T17:49:05.267Z,101258.00
2023-01-25T17:51:36.797Z,101266.00
2023-01-25T17:54:05.143Z,101274.00
2023-01-25T17:56:32.199Z,101267.00
2023-01-25T17:59:01.083Z,101271.00
2023-01-25T18:01:31.961Z,101264.00
2023-01-25T18:04:00.607Z,101260.00
2023-01-25T18:06:31.282Z,101255.00
2023-01-25T18:09:01.691Z,101253.00
2023-01-25T18:11:33.105Z,101251.00
2023-01-25T18:14:09.284Z,101250.00
2023-01-25T18:16:39.747Z,101240.00
2023-01-25T18:19:08.615Z,101247.00
2023-01-25T18:21:36.475Z,101230.00
2023-01-25T18:24:27.820Z,101222.00
2023-01-25T18:27:20.663Z,101222.00
2023-01-25T18:29:59.480Z,101214.00
2023-01-25T18:32:27.211Z,101221.00
2023-01-25T18:34:55.833Z,101228.00
2023-01-25T18:37:25.676Z,101220.00
2023-01-25T18:39:55.194Z,101196.00
2023-01-25T18:42:24.878Z,101223.00
2023-01-25T18:44:51.851Z,101223.00
2023-01-25T18:47:21.865Z,101225.00
2023-01-25T18:49:51.318Z,101222.00
2023-01-25T18:52:20.107Z,101213.00
2023-01-25T18:54:47.200Z,101184.00
2023-01-25T18:57:15.326Z,101216.00
2023-01-25T18:59:42.929Z,101213.00
2023-01-25T19:02:15.625Z,101195.00
2023-01-25T19:04:42.730Z,101202.00
2023-01-25T19:07:09.762Z,101192.00
2023-01-25T19:09:36.902Z,101195.00
2023-01-25T19:12:04.894Z,101212.00
2023-01-25T19:14:31.899Z,101204.00
2023-01-25T19:16:58.843Z,101196.00
2023-01-25T19:19:31.712Z,101186.00
2023-01-25T19:22:00.147Z,101186.00
2023-01-25T19:24:29.148Z,101186.00
2023-01-25T19:26:56.170Z,101185.00
2023-01-25T19:29:23.113Z,101184.00
2023-01-25T19:31:51.925Z,101180.00
2023-01-25T19:34:18.897Z,101186.00
2023-01-25T19:36:49.994Z,101182.00
2023-01-25T19:39:18.195Z,101186.00
2023-01-25T19:41:45.539Z,101175.00
2023-01-25T19:44:14.712Z,101182.00
2023-01-25T19:46:42.213Z,101178.00
2023-01-25T19:49:13.167Z,101139.00
2023-01-25T19:51:45.319Z,101176.00
2023-01-25T19:54:16.770Z,101162.00
2023-01-25T19:56:47.023Z,101166.00
2023-01-25T19:59:24.809Z,101178.00
2023-01-25T20:01:52.425Z,101164.00
2023-01-25T20:04:22.924Z,101164.00
2023-01-25T20:06:51.187Z,101137.00
2023-01-25T20:09:20.114Z,101154.00
2023-01-25T20:11:47.527Z,101157.00
2023-01-25T20:14:15.442Z,101147.00
2023-01-25T20:16:42.868Z,101118.00
2023-01-25T20:19:12.156Z,101146.00
2023-01-25T20:21:39.970Z,101149.00
2023-01-25T20:24:09.740Z,101155.00
2023-01-25T20:26:40.022Z,101145.00
2023-01-25T20:29:08.036Z,101138.00
2023-01-25T20:31:41.775Z,101125.00
2023-01-25T20:34:17.128Z,101113.00
2023-01-25T20:36:44.454Z,101127.00
2023-01-25T20:39:18.203Z,101125.00
2023-01-25T20:41:45.707Z,101118.00
2023-01-25T20:44:15.646Z,101111.00
2023-01-25T20:46:43.181Z,101112.00
2023-01-25T20:49:16.888Z,101112.00
2023-01-25T20:51:44.782Z,101089.00
2023-01-25T20:54:12.420Z,101090.00
2023-01-25T20:56:39.617Z,101076.00
2023-01-25T20:59:06.919Z,101089.00
2023-01-25T21:01:36.853Z,101101.00
2023-01-25T21:04:08.188Z,101091.00
2023-01-25T21:06:35.878Z,101089.00
2023-01-25T21:09:04.637Z,101090.00
2023-01-25T21:11:32.455Z,101083.00
2023-01-25T21:13:59.611Z,101082.00
2023-01-25T21:16:26.901Z,101092.00
2023-01-25T21:19:00.209Z,101095.00
2023-01-25T21:21:30.463Z,101086.00
2023-01-25T21:24:00.094Z,101091.00
2023-01-25T21:26:31.688Z,101054.00
2023-01-25T21:29:01.094Z,101073.00
2023-01-25T21:31:38.297Z,101068.00
2023-01-25T21:34:06.659Z,101059.00
2023-01-25T21:36:34.778Z,101054.00
2023-01-25T21:39:02.422Z,101064.00
2023-01-25T21:41:33.517Z,101063.00
2023-01-25T21:44:20.063Z,101063.00
2023-01-25T21:47:12.463Z,101051.00
2023-01-25T21:49:52.577Z,101070.00
2023-01-25T21:52:19.540Z,101066.00
2023-01-25T21:54:46.414Z,101081.00
2023-01-25T21:57:13.305Z,101080.00
2023-01-25T21:59:40.949Z,101083.00
2023-01-25T22:02:13.962Z,101068.00
2023-01-25T22:04:41.178Z,101079.00
2023-01-25T22:07:09.650Z,101073.00
2023-01-25T22:09:36.589Z,101069.00
2023-01-25T22:12:03.796Z,101066.00
2023-01-25T22:14:30.681Z,101058.00
2023-01-25T22:16:58.078Z,101054.00
2023-01-25T22:19:25.016Z,101053.00
2023-01-25T22:21:51.964Z,101055.00
2023-01-25T22:24:19.044Z,101062.00
2023-01-25T22:26:45.844Z,101050.00
2023-01-25T22:29:13.886Z,101053.00
2023-01-25T22:31:41.444Z,101058.00
2023-01-25T22:34:08.486Z,101045.00
2023-01-25T22:36:35.454Z,101044.00
2023-01-25T22:39:02.268Z,101039.00
2023-01-25T22:41:32.124Z,101043.00
2023-01-25T22:43:59.175Z,101044.00
2023-01-25T22:46:29.205Z,101047.00
2023-01-25T22:48:57.824Z,101043.00
2023-01-25T22:51:29.943Z,101047.00
2023-01-25T22:53:58.748Z,101046.00
2023-01-25T22:56:32.583Z,101037.00
2023-01-25T22:59:01.294Z,101027.00
2023-01-25T23:01:31.921Z,101036.00
2023-01-25T23:03:59.875Z,101024.00
2023-01-25T23:06:35.690Z,101025.00
2023-01-25T23:09:06.298Z,101021.00
2023-01-25T23:11:37.179Z,101015.00
2023-01-25T23:14:25.299Z,101013.00
2023-01-25T23:16:53.117Z,101002.00
2023-01-25T23:19:20.551Z,100997.00
2023-01-25T23:21:47.472Z,100988.00
2023-01-25T23:24:15.525Z,100985.00
2023-01-25T23:26:46.507Z,100978.00
2023-01-25T23:29:14.471Z,100981.00
2023-01-25T23:31:41.729Z,100963.00
2023-01-25T23:34:11.778Z,100976.00
2023-01-25T23:36:39.645Z,100960.00
2023-01-25T23:39:06.751Z,100966.00
2023-01-25T23:41:35.224Z,100971.00
2023-01-25T23:44:02.209Z,100949.00
2023-01-25T23:46:30.591Z,100973.00
2023-01-25T23:48:57.477Z,100975.00
2023-01-25T23:51:24.617Z,100972.00
2023-01-25T23:53:55.791Z,100972.00
2023-01-25T23:56:22.914Z,100967.00
2023-01-25T23:58:50.597Z,100953.00
